Time;durP1;ratioP1;P1;durP2;ratioP2;P2;SDS_P1;SDS_P2;PMS_P1;PMS_P2;Temp;Humidity;BMP_temperature;BMP_pressure;BME280_temperature;BME280_humidity;BME280_pressure;Samples;Min_cycle;Max_cycle;Signal;HPM_P1;HPM_P2
2022/01/13 00:01:57;;;;;;;272.45;43.28;;;4.60;99.90;;;;;;5113052;28;20043;-87
2022/01/13 00:04:23;;;;;;;275.67;46.25;;;4.60;99.90;;;;;;5096170;28;20047;-86
2022/01/13 00:06:49;;;;;;;372.63;47.45;;;4.60;99.90;;;;;;5096586;28;20135;-86
2022/01/13 00:09:16;;;;;;;385.33;47.83;;;4.60;99.90;;;;;;5095945;28;20127;-86
2022/01/13 00:11:43;;;;;;;331.13;41.88;;;4.60;99.90;;;;;;5096229;28;20124;-87
2022/01/13 00:14:25;;;;;;;346.83;48.15;;;4.60;99.90;;;;;;5095974;28;20035;-86
2022/01/13 00:19:36;;;;;;;377.27;43.78;;;4.60;99.90;;;;;;5113131;28;20047;-86
2022/01/13 00:22:17;;;;;;;354.20;42.88;;;4.60;99.90;;;;;;5096355;28;20079;-86
2022/01/13 00:24:45;;;;;;;362.17;45.85;;;4.60;99.90;;;;;;5095714;28;20504;-86
2022/01/13 00:27:13;;;;;;;415.25;48.53;;;4.60;99.90;;;;;;5112299;28;20051;-86
2022/01/13 00:29:41;;;;;;;306.13;41.58;;;4.60;99.90;;;;;;5095845;28;20036;-86
2022/01/13 00:32:08;;;;;;;386.10;43.95;;;4.70;99.90;;;;;;5112953;28;20040;-86
2022/01/13 00:34:34;;;;;;;286.92;38.13;;;4.70;99.90;;;;;;5095410;28;20082;-87
2022/01/13 00:37:00;;;;;;;371.15;41.33;;;4.70;99.90;;;;;;5111757;28;20039;-86
2022/01/13 00:39:25;;;;;;;372.48;43.00;;;4.70;99.90;;;;;;5111992;28;20036;-86
2022/01/13 00:41:52;;;;;;;335.05;41.03;;;4.70;99.90;;;;;;5112272;28;20035;-86
2022/01/13 00:44:20;;;;;;;292.40;41.85;;;4.70;99.90;;;;;;5112316;28;20082;-87
2022/01/13 00:46:57;;;;;;;299.30;41.40;;;4.80;99.90;;;;;;5112444;28;20092;-86
2022/01/13 00:49:23;;;;;;;267.38;37.63;;;4.80;99.90;;;;;;5112756;28;20044;-86
2022/01/13 00:51:49;;;;;;;390.25;41.75;;;4.70;99.90;;;;;;5112074;28;20043;-86
2022/01/13 00:54:15;;;;;;;364.05;42.22;;;4.80;99.90;;;;;;5094909;28;20074;-86
2022/01/13 00:56:41;;;;;;;324.73;39.97;;;4.80;99.90;;;;;;5094684;28;20040;-86
2022/01/13 00:59:10;;;;;;;329.75;38.20;;;4.80;99.90;;;;;;5095009;28;20126;-86
2022/01/13 01:01:41;;;;;;;344.88;39.97;;;4.80;99.90;;;;;;5094977;28;20043;-86
2022/01/13 01:04:07;;;;;;;332.65;39.95;;;4.80;99.90;;;;;;5111837;28;20416;-86
2022/01/13 01:06:34;;;;;;;337.02;41.10;;;4.80;99.90;;;;;;5111790;28;20039;-86
2022/01/13 01:09:00;;;;;;;311.15;38.78;;;4.80;99.90;;;;;;5112196;28;20047;-86
2022/01/13 01:11:26;;;;;;;308.67;38.28;;;4.90;99.90;;;;;;5094931;28;20038;-86
2022/01/13 01:13:58;;;;;;;344.05;40.15;;;4.90;99.90;;;;;;5111819;28;20124;-86
2022/01/13 01:16:26;;;;;;;294.25;36.60;;;4.90;99.90;;;;;;5111979;28;20044;-86
2022/01/13 01:19:00;;;;;;;382.30;41.13;;;4.90;99.90;;;;;;5094472;28;20035;-86
2022/01/13 01:29:18;;;;;;;289.70;33.55;;;4.90;99.90;;;;;;5111932;28;20083;-86
2022/01/13 01:31:50;;;;;;;344.55;38.72;;;5.00;99.90;;;;;;5111544;28;20043;-86
2022/01/13 01:36:49;;;;;;;315.73;34.72;;;5.00;99.90;;;;;;5110746;28;20055;-86
2022/01/13 01:39:15;;;;;;;370.10;39.53;;;5.00;99.90;;;;;;5110981;28;20031;-86
2022/01/13 01:41:46;;;;;;;320.40;39.75;;;5.00;99.90;;;;;;5094508;28;20082;-86
2022/01/13 01:44:26;;;;;;;311.80;36.40;;;5.00;99.90;;;;;;5094253;28;20044;-86
2022/01/13 01:46:51;;;;;;;324.92;38.70;;;5.10;99.90;;;;;;5111328;28;20126;-86
2022/01/13 01:49:21;;;;;;;364.67;40.70;;;5.10;99.90;;;;;;5111305;28;20124;-86
2022/01/13 01:51:55;;;;;;;343.58;41.33;;;5.10;99.90;;;;;;5111010;28;20040;-86
2022/01/13 01:54:21;;;;;;;307.23;39.13;;;5.10;99.90;;;;;;5110953;28;20046;-86
2022/01/13 01:56:47;;;;;;;333.67;38.17;;;5.10;99.90;;;;;;5094104;28;20047;-86
2022/01/13 01:59:17;;;;;;;364.02;42.70;;;5.10;99.90;;;;;;5093880;28;20035;-86
2022/01/13 02:01:43;;;;;;;312.15;34.17;;;5.10;99.90;;;;;;5094689;28;20053;-86
2022/01/13 02:04:09;;;;;;;349.25;37.25;;;5.10;99.90;;;;;;5111960;28;20054;-86
2022/01/13 02:06:37;;;;;;;379.10;37.97;;;5.10;99.90;;;;;;5112927;28;20079;-86
2022/01/13 02:09:05;;;;;;;318.70;35.67;;;5.10;99.90;;;;;;5124874;28;20040;-86
2022/01/13 02:11:38;;;;;;;263.63;31.67;;;5.20;99.90;;;;;;5105239;28;20027;-87
2022/01/13 02:14:20;;;;;;;280.23;33.72;;;5.20;99.90;;;;;;5094359;28;20122;-86
2022/01/13 02:16:49;;;;;;;301.02;32.45;;;5.20;99.90;;;;;;5110708;28;20404;-86
2022/01/13 02:19:16;;;;;;;311.00;34.13;;;5.20;99.90;;;;;;5093947;28;20044;-86
2022/01/13 02:21:42;;;;;;;245.40;32.50;;;5.20;99.90;;;;;;5094023;28;20047;-86
2022/01/13 02:24:07;;;;;;;169.68;27.27;;;5.20;99.90;;;;;;5110858;28;20046;-87
2022/01/13 02:26:34;;;;;;;214.63;28.95;;;5.30;99.90;;;;;;5094051;28;20134;-86
2022/01/13 02:28:59;;;;;;;232.75;29.00;;;5.20;99.90;;;;;;5090933;28;20457;-86
2022/01/13 02:31:26;;;;;;;187.25;25.60;;;5.20;99.90;;;;;;5093598;28;20035;-86
2022/01/13 02:33:53;;;;;;;237.15;28.80;;;5.30;99.90;;;;;;5109645;28;20567;-87
2022/01/13 02:36:21;;;;;;;151.07;24.15;;;5.30;99.90;;;;;;5091280;28;20051;-87
2022/01/13 02:38:48;;;;;;;214.52;27.55;;;5.30;99.90;;;;;;5110613;28;20082;-86
2022/01/13 02:41:14;;;;;;;221.13;28.23;;;5.30;99.90;;;;;;5093547;28;20050;-86
2022/01/13 02:43:39;;;;;;;263.33;29.63;;;5.30;99.90;;;;;;5110218;28;20040;-86
2022/01/13 02:46:33;;;;;;;198.32;30.20;;;5.30;99.90;;;;;;5093341;28;20040;-86
2022/01/13 02:49:00;;;;;;;204.30;28.02;;;5.30;99.90;;;;;;5110367;28;20039;-87
2022/01/13 02:51:27;;;;;;;236.60;27.80;;;5.30;99.90;;;;;;5110410;28;20040;-86
2022/01/13 02:53:53;;;;;;;243.02;28.88;;;5.30;99.90;;;;;;5109716;28;20480;-86
2022/01/13 02:56:19;;;;;;;272.25;31.58;;;5.30;99.90;;;;;;5110228;28;20096;-87
2022/01/13 02:58:45;;;;;;;231.32;28.25;;;5.30;99.90;;;;;;5093127;28;20047;-87
2022/01/13 03:01:12;;;;;;;231.02;27.98;;;5.30;99.90;;;;;;5110289;28;20040;-87
2022/01/13 03:03:39;;;;;;;210.77;26.33;;;5.30;99.90;;;;;;5093314;28;20507;-86
2022/01/13 03:06:09;;;;;;;213.80;27.80;;;5.30;99.90;;;;;;5093259;28;20088;-86
2022/01/13 03:08:36;;;;;;;222.35;28.35;;;5.40;99.90;;;;;;5110362;28;20039;-87
2022/01/13 03:11:02;;;;;;;201.93;27.20;;;5.30;99.90;;;;;;5093579;28;20476;-86
2022/01/13 03:13:29;;;;;;;194.00;26.73;;;5.30;99.90;;;;;;5109849;28;20047;-86
2022/01/13 03:15:55;;;;;;;179.25;24.05;;;5.30;99.90;;;;;;5110274;28;20533;-87
2022/01/13 03:18:21;;;;;;;211.68;27.52;;;5.30;99.90;;;;;;5093277;28;20672;-87
2022/01/13 03:20:46;;;;;;;249.13;30.90;;;5.30;99.90;;;;;;5096979;28;20047;-87
2022/01/13 03:23:16;;;;;;;162.40;26.58;;;5.30;99.90;;;;;;5096818;28;20126;-87
2022/01/13 03:25:44;;;;;;;182.30;25.67;;;5.30;99.90;;;;;;5114064;28;20036;-87
2022/01/13 03:28:15;;;;;;;225.90;28.40;;;5.30;99.90;;;;;;5113672;28;20057;-87
2022/01/13 03:30:42;;;;;;;189.95;28.40;;;5.30;99.90;;;;;;5097539;28;20415;-87
2022/01/13 03:33:08;;;;;;;246.77;30.63;;;5.30;99.90;;;;;;5113670;28;20077;-87
2022/01/13 03:35:36;;;;;;;240.00;27.60;;;5.30;99.90;;;;;;5095762;28;20035;-87
2022/01/13 03:38:02;;;;;;;213.52;28.50;;;5.30;99.90;;;;;;5113832;28;20695;-86
2022/01/13 03:40:28;;;;;;;162.18;24.45;;;5.30;99.90;;;;;;5096874;28;20031;-87
2022/01/13 03:42:54;;;;;;;176.88;25.60;;;5.30;99.90;;;;;;5097102;28;20406;-87
2022/01/13 03:45:21;;;;;;;155.60;22.40;;;5.30;99.90;;;;;;5113769;28;20492;-86
2022/01/13 03:47:46;;;;;;;172.75;24.05;;;5.30;99.90;;;;;;5096472;28;20050;-87
2022/01/13 03:50:13;;;;;;;169.73;24.40;;;5.20;99.90;;;;;;5096594;28;20032;-87
2022/01/13 03:53:26;;;;;;;139.52;21.60;;;5.20;99.90;;;;;;5096667;28;20465;-87
2022/01/13 03:56:19;;;;;;;108.65;19.15;;;5.20;99.90;;;;;;5096089;28;20051;-86
2022/01/13 03:59:25;;;;;;;98.57;18.95;;;5.20;99.90;;;;;;5096366;28;20040;-87
2022/01/13 04:02:04;;;;;;;119.68;19.13;;;5.20;99.90;;;;;;5096418;28;20044;-87
2022/01/13 04:04:39;;;;;;;119.70;21.08;;;5.20;99.90;;;;;;5096032;28;20075;-87
2022/01/13 04:07:11;;;;;;;120.40;21.23;;;5.20;99.90;;;;;;5096460;28;20051;-87
2022/01/13 04:09:40;;;;;;;146.40;21.92;;;5.20;99.90;;;;;;5113330;28;20118;-87
2022/01/13 04:12:09;;;;;;;148.30;22.00;;;5.20;99.90;;;;;;5096046;28;20081;-87
2022/01/13 04:14:57;;;;;;;172.25;23.25;;;5.20;99.90;;;;;;5112879;28;20046;-87
2022/01/13 04:17:24;;;;;;;147.93;22.00;;;5.20;99.90;;;;;;5095577;28;20088;-87
2022/01/13 04:19:50;;;;;;;170.38;23.27;;;5.20;99.90;;;;;;5096254;28;20457;-87
2022/01/13 04:22:17;;;;;;;133.95;22.40;;;5.20;99.90;;;;;;5096264;28;20500;-86
2022/01/13 04:24:45;;;;;;;126.57;22.50;;;5.10;99.90;;;;;;5112958;28;20032;-86
2022/01/13 04:27:21;;;;;;;138.35;22.33;;;5.10;99.90;;;;;;5095503;28;20058;-86
2022/01/13 04:29:49;;;;;;;148.07;23.58;;;5.10;99.90;;;;;;5112946;28;20442;-87
2022/01/13 04:32:14;;;;;;;131.57;21.42;;;5.10;99.90;;;;;;5094967;28;20084;-86
2022/01/13 04:34:40;;;;;;;134.23;22.50;;;5.10;99.90;;;;;;5095290;28;20081;-86
2022/01/13 04:37:06;;;;;;;125.38;21.65;;;5.10;99.90;;;;;;5094758;28;20112;-87
2022/01/13 04:39:32;;;;;;;111.65;21.80;;;5.10;99.90;;;;;;5095578;28;20043;-86
2022/01/13 04:41:58;;;;;;;122.78;21.02;;;5.10;99.90;;;;;;5112583;28;20052;-86
2022/01/13 04:44:25;;;;;;;151.48;23.27;;;5.10;99.90;;;;;;5112745;28;20047;-86
2022/01/13 04:46:54;;;;;;;116.85;20.80;;;5.10;99.90;;;;;;5114102;28;20039;-87
2022/01/13 04:49:21;;;;;;;118.72;22.10;;;5.10;99.90;;;;;;5114431;28;20489;-87
2022/01/13 04:51:49;;;;;;;97.25;19.80;;;5.10;99.90;;;;;;5109067;28;20063;-87
2022/01/13 04:54:15;;;;;;;117.03;20.45;;;5.10;99.90;;;;;;5101181;28;20075;-87
2022/01/13 04:57:04;;;;;;;141.00;23.02;;;5.10;99.90;;;;;;5111911;28;20500;-86
2022/01/13 04:59:29;;;;;;;95.00;20.73;;;5.10;99.90;;;;;;5111750;28;20122;-87
2022/01/13 05:01:55;;;;;;;115.93;20.08;;;5.00;99.90;;;;;;5112439;28;20081;-87
2022/01/13 05:04:21;;;;;;;121.85;22.15;;;5.00;99.90;;;;;;5111863;28;20035;-86
2022/01/13 05:06:47;;;;;;;103.13;20.95;;;5.00;99.90;;;;;;5092524;28;20036;-87
2022/01/13 05:09:12;;;;;;;87.65;18.60;;;5.00;99.90;;;;;;5094773;28;20541;-86
2022/01/13 05:11:38;;;;;;;107.50;21.27;;;5.00;99.90;;;;;;5111463;28;20035;-87
2022/01/13 05:14:04;;;;;;;127.65;22.25;;;5.00;99.90;;;;;;5094610;28;20039;-86
2022/01/13 05:16:46;;;;;;;131.20;23.13;;;5.00;99.90;;;;;;5111673;28;20047;-86
2022/01/13 05:19:16;;;;;;;114.10;21.67;;;5.00;99.90;;;;;;5094669;28;20035;-87
2022/01/13 05:24:19;;;;;;;116.55;23.95;;;5.00;99.90;;;;;;5111593;28;20081;-86
2022/01/13 05:26:45;;;;;;;122.43;23.90;;;5.00;99.90;;;;;;5111109;28;20066;-87
2022/01/13 05:29:16;;;;;;;149.48;24.63;;;5.00;99.90;;;;;;5111879;28;20032;-86
2022/01/13 05:31:41;;;;;;;166.73;26.52;;;5.00;99.90;;;;;;5111834;28;20120;-86
2022/01/13 05:34:07;;;;;;;106.45;24.35;;;5.00;99.90;;;;;;5111455;28;20070;-86
2022/01/13 05:36:33;;;;;;;109.88;21.77;;;5.00;99.90;;;;;;5094037;28;20073;-86
2022/01/13 05:38:58;;;;;;;126.07;22.90;;;5.00;99.90;;;;;;5111337;28;20039;-87
2022/01/13 05:41:24;;;;;;;129.27;22.95;;;5.00;99.90;;;;;;5094187;28;20052;-86
2022/01/13 05:43:49;;;;;;;85.65;19.73;;;5.00;99.90;;;;;;5093341;28;20045;-86
2022/01/13 05:46:15;;;;;;;90.13;20.92;;;5.00;99.90;;;;;;5094421;28;20043;-87
2022/01/13 05:48:40;;;;;;;102.35;21.88;;;4.90;99.90;;;;;;5094220;28;20044;-86
2022/01/13 05:51:06;;;;;;;111.88;20.48;;;5.00;99.90;;;;;;5094718;28;20435;-86
2022/01/13 05:53:32;;;;;;;108.22;21.58;;;5.00;99.90;;;;;;5110840;28;20489;-87
2022/01/13 05:55:57;;;;;;;152.20;26.35;;;5.00;99.90;;;;;;5094429;28;20043;-87
2022/01/13 05:58:23;;;;;;;124.13;23.48;;;5.00;99.90;;;;;;5094129;28;20055;-86
2022/01/13 06:00:49;;;;;;;150.27;25.30;;;4.90;99.90;;;;;;5110976;28;20051;-87
2022/01/13 06:03:14;;;;;;;179.52;26.65;;;5.00;99.90;;;;;;5094207;28;20036;-87
2022/01/13 06:05:40;;;;;;;155.90;26.02;;;5.00;99.90;;;;;;5093799;28;20040;-87
2022/01/13 06:08:06;;;;;;;104.60;23.52;;;5.00;99.90;;;;;;5110582;28;20107;-87
2022/01/13 06:10:31;;;;;;;98.70;22.02;;;5.00;99.90;;;;;;5093872;28;20122;-87
2022/01/13 06:12:57;;;;;;;78.93;20.48;;;5.00;99.90;;;;;;5111084;28;20028;-87
2022/01/13 06:15:25;;;;;;;111.97;21.27;;;5.00;99.90;;;;;;5110499;28;20035;-87
2022/01/13 06:17:53;;;;;;;76.35;19.85;;;4.90;99.90;;;;;;5093814;28;20044;-87
2022/01/13 06:20:20;;;;;;;92.82;21.33;;;4.90;99.90;;;;;;5110980;28;20065;-87
2022/01/13 06:22:48;;;;;;;96.03;19.95;;;4.90;99.90;;;;;;5111048;28;20035;-86
2022/01/13 06:25:15;;;;;;;57.60;14.75;;;4.90;99.90;;;;;;5093325;28;20175;-87
2022/01/13 06:27:41;;;;;;;96.75;20.40;;;4.90;99.90;;;;;;5092827;28;20043;-87
2022/01/13 06:30:10;;;;;;;101.10;21.92;;;4.80;99.90;;;;;;5093633;28;20071;-87
2022/01/13 06:32:36;;;;;;;95.35;20.30;;;4.80;99.90;;;;;;5094022;28;20627;-87
2022/01/13 06:35:02;;;;;;;87.93;18.92;;;4.80;99.90;;;;;;5091669;28;20028;-87
2022/01/13 06:37:28;;;;;;;87.55;20.33;;;4.80;99.90;;;;;;5110206;28;20039;-85
2022/01/13 06:39:53;;;;;;;96.70;22.05;;;4.80;99.90;;;;;;5112524;28;20100;-86
2022/01/13 06:42:19;;;;;;;84.13;21.92;;;4.80;99.90;;;;;;5111681;28;20527;-87
2022/01/13 06:44:45;;;;;;;88.43;21.27;;;4.80;99.90;;;;;;5093866;28;20497;-87
2022/01/13 06:47:11;;;;;;;90.00;19.52;;;4.80;99.90;;;;;;5093652;28;20077;-87
2022/01/13 06:49:39;;;;;;;88.05;22.70;;;4.80;99.90;;;;;;5110257;28;20031;-87
2022/01/13 06:52:05;;;;;;;105.82;22.45;;;4.80;99.90;;;;;;5093778;28;20044;-87
2022/01/13 06:54:31;;;;;;;99.55;21.88;;;4.80;99.90;;;;;;5111979;28;20035;-86
2022/01/13 06:56:57;;;;;;;85.68;19.17;;;4.80;99.90;;;;;;5114702;28;20043;-86
2022/01/13 06:59:23;;;;;;;92.75;20.40;;;4.80;99.90;;;;;;5097487;28;20081;-86
2022/01/13 07:01:49;;;;;;;118.95;22.83;;;4.80;99.90;;;;;;5097497;28;20123;-86
2022/01/13 07:04:15;;;;;;;109.57;20.52;;;4.80;99.90;;;;;;5097137;28;20079;-86
2022/01/13 07:06:43;;;;;;;127.93;25.15;;;4.80;99.90;;;;;;5097282;28;20557;-86
2022/01/13 07:09:12;;;;;;;101.63;21.67;;;4.80;99.90;;;;;;5097382;28;20044;-86
2022/01/13 07:11:39;;;;;;;92.55;22.77;;;4.80;99.90;;;;;;5097566;28;20050;-86
2022/01/13 07:14:05;;;;;;;105.53;23.67;;;4.80;99.90;;;;;;5114171;28;20563;-86
2022/01/13 07:16:31;;;;;;;118.78;23.33;;;4.80;99.90;;;;;;5114298;28;20071;-86
2022/01/13 07:18:57;;;;;;;105.63;23.38;;;4.80;99.90;;;;;;5114019;28;20096;-86
2022/01/13 07:21:25;;;;;;;90.80;20.27;;;4.80;99.90;;;;;;5115089;28;20040;-86
2022/01/13 07:23:51;;;;;;;114.32;21.05;;;4.80;99.90;;;;;;5115799;28;20043;-85
2022/01/13 07:26:21;;;;;;;125.97;24.00;;;4.80;99.90;;;;;;5116211;28;20105;-85
2022/01/13 07:28:47;;;;;;;120.63;22.52;;;4.80;99.90;;;;;;5133910;28;20016;-86
2022/01/13 07:31:14;;;;;;;157.93;26.90;;;4.80;99.90;;;;;;5108853;28;20124;-86
2022/01/13 07:33:41;;;;;;;98.82;20.45;;;4.80;99.90;;;;;;5113766;28;20042;-86
2022/01/13 07:36:06;;;;;;;139.20;23.85;;;4.80;99.90;;;;;;5113415;28;20172;-86
2022/01/13 07:38:32;;;;;;;141.50;22.70;;;4.80;99.90;;;;;;5114278;28;20533;-86
2022/01/13 07:40:58;;;;;;;129.73;23.80;;;4.80;99.90;;;;;;5113902;28;20046;-86
2022/01/13 07:43:25;;;;;;;131.65;24.42;;;4.80;99.90;;;;;;5113489;28;20039;-86
2022/01/13 07:45:51;;;;;;;121.43;23.88;;;4.80;99.90;;;;;;5097096;28;20373;-86
2022/01/13 07:48:17;;;;;;;129.95;23.00;;;4.90;99.90;;;;;;5096558;28;20126;-86
2022/01/13 07:50:43;;;;;;;115.68;21.45;;;4.90;99.90;;;;;;5114111;28;20565;-87
2022/01/13 07:53:09;;;;;;;124.60;24.23;;;4.90;99.90;;;;;;5094434;28;20040;-86
2022/01/13 07:55:35;;;;;;;111.97;21.63;;;4.90;99.90;;;;;;5093506;28;20036;-86
2022/01/13 07:58:00;;;;;;;120.43;25.38;;;4.90;99.90;;;;;;5077622;28;20047;-87
2022/01/13 08:00:26;;;;;;;116.32;22.92;;;4.90;99.90;;;;;;5093801;28;20143;-87
2022/01/13 08:02:52;;;;;;;127.47;22.23;;;4.90;99.90;;;;;;5113575;28;20130;-86
2022/01/13 08:05:18;;;;;;;154.20;24.88;;;4.90;99.90;;;;;;5112673;28;20032;-86
2022/01/13 08:07:43;;;;;;;138.10;24.98;;;4.90;99.90;;;;;;5112813;28;20743;-86
2022/01/13 08:10:10;;;;;;;150.15;26.50;;;4.90;99.90;;;;;;5113010;28;20035;-86
2022/01/13 08:12:40;;;;;;;134.75;24.73;;;4.90;99.90;;;;;;5113218;28;20665;-85
2022/01/13 08:15:10;;;;;;;150.52;25.70;;;4.90;99.90;;;;;;5110320;28;20053;-85
2022/01/13 08:20:19;;;;;;;98.13;21.30;;;4.90;99.90;;;;;;5112643;28;20439;-87
2022/01/13 08:22:45;;;;;;;122.65;25.17;;;4.90;99.90;;;;;;5112502;28;20046;-86
2022/01/13 08:25:11;;;;;;;101.97;22.73;;;4.90;99.90;;;;;;5112569;28;20044;-86
2022/01/13 08:27:37;;;;;;;133.43;21.95;;;4.90;99.90;;;;;;5094978;28;20089;-86
2022/01/13 08:30:05;;;;;;;110.95;22.33;;;5.00;99.90;;;;;;5095715;28;20031;-86
2022/01/13 08:32:30;;;;;;;100.47;22.58;;;4.90;99.90;;;;;;5096105;28;20471;-86
2022/01/13 08:34:56;;;;;;;111.63;22.88;;;5.00;99.90;;;;;;5112291;28;20452;-87
2022/01/13 08:37:22;;;;;;;118.30;23.35;;;5.00;99.90;;;;;;5094529;28;20032;-86
2022/01/13 08:39:47;;;;;;;96.50;23.30;;;5.00;99.90;;;;;;5112621;28;20084;-86
2022/01/13 08:42:14;;;;;;;103.80;22.33;;;5.00;99.90;;;;;;5112514;28;20044;-85
2022/01/13 08:44:40;;;;;;;106.05;21.55;;;5.00;99.90;;;;;;5095221;28;20046;-86
2022/01/13 08:47:06;;;;;;;93.10;20.75;;;5.00;99.90;;;;;;5112144;28;20092;-86
2022/01/13 08:49:33;;;;;;;95.53;21.63;;;5.00;99.90;;;;;;5095130;28;20507;-87
2022/01/13 08:52:00;;;;;;;89.53;19.73;;;5.00;99.90;;;;;;5095309;28;20049;-86
2022/01/13 08:54:25;;;;;;;88.28;20.13;;;5.00;99.90;;;;;;5095206;28;20492;-86
2022/01/13 08:56:51;;;;;;;124.07;24.77;;;5.10;99.90;;;;;;5110324;28;20040;-86
2022/01/13 08:59:18;;;;;;;94.60;20.25;;;5.10;99.90;;;;;;5095440;28;20050;-87
2022/01/13 09:01:44;;;;;;;85.55;20.52;;;5.10;99.90;;;;;;5094562;28;20040;-87
2022/01/13 09:04:09;;;;;;;98.03;22.02;;;5.10;99.90;;;;;;5111741;28;20043;-87
2022/01/13 09:06:35;;;;;;;92.65;21.55;;;5.10;99.90;;;;;;5112150;28;20127;-86
2022/01/13 09:09:02;;;;;;;124.80;23.58;;;5.10;99.90;;;;;;5112052;28;20036;-87
2022/01/13 09:11:29;;;;;;;85.95;20.88;;;5.10;99.90;;;;;;5111844;28;20084;-86
2022/01/13 09:13:58;;;;;;;120.43;22.90;;;5.10;99.90;;;;;;5111633;28;20027;-86
2022/01/13 09:16:26;;;;;;;113.03;23.50;;;5.10;99.90;;;;;;5112108;28;20043;-86
2022/01/13 09:21:26;;;;;;;110.85;24.30;;;5.10;99.90;;;;;;5112032;28;20401;-86
2022/01/13 09:23:52;;;;;;;120.85;25.73;;;5.10;99.90;;;;;;5094344;28;20046;-86
2022/01/13 09:26:17;;;;;;;84.80;20.30;;;5.20;99.90;;;;;;5094265;28;20035;-86
2022/01/13 09:28:43;;;;;;;94.55;22.27;;;5.20;99.90;;;;;;5111284;28;20112;-86
2022/01/13 09:31:09;;;;;;;94.75;21.17;;;5.20;99.90;;;;;;5111229;28;20535;-86
2022/01/13 09:33:35;;;;;;;92.45;22.08;;;5.20;99.90;;;;;;5094910;28;20131;-86
2022/01/13 09:36:02;;;;;;;111.57;23.02;;;5.20;99.90;;;;;;5095086;28;20130;-86
2022/01/13 09:38:28;;;;;;;90.68;21.17;;;5.20;99.90;;;;;;5111478;28;20043;-85
2022/01/13 09:40:55;;;;;;;118.63;23.67;;;5.20;99.90;;;;;;5111330;28;20062;-85
2022/01/13 09:43:22;;;;;;;102.25;21.70;;;5.20;99.90;;;;;;5109645;28;20091;-86
2022/01/13 09:45:49;;;;;;;102.35;22.17;;;5.20;99.90;;;;;;5111374;28;20051;-85
2022/01/13 09:48:15;;;;;;;98.47;22.73;;;5.30;99.90;;;;;;5111115;28;20501;-86
2022/01/13 09:50:43;;;;;;;113.00;23.92;;;5.30;99.90;;;;;;5094163;28;20035;-85
2022/01/13 09:53:09;;;;;;;119.15;26.25;;;5.30;99.90;;;;;;5111254;28;20042;-85
2022/01/13 09:55:35;;;;;;;111.75;22.98;;;5.30;99.90;;;;;;5094322;28;20031;-86
2022/01/13 09:58:05;;;;;;;117.57;22.58;;;5.30;99.90;;;;;;5094013;28;20054;-86
2022/01/13 10:00:31;;;;;;;127.78;25.00;;;5.40;99.90;;;;;;5111248;28;20489;-86
2022/01/13 10:02:56;;;;;;;90.57;21.08;;;5.40;99.90;;;;;;5111566;28;20127;-87
2022/01/13 10:05:23;;;;;;;92.07;21.52;;;5.40;99.90;;;;;;5111045;28;20081;-86
2022/01/13 10:07:51;;;;;;;91.85;22.25;;;5.40;99.90;;;;;;5112693;28;20051;-86
2022/01/13 10:10:22;;;;;;;117.55;23.08;;;5.40;99.90;;;;;;5108457;28;20052;-86
2022/01/13 10:12:59;;;;;;;107.63;22.10;;;5.40;99.90;;;;;;5116692;28;20036;-86
2022/01/13 10:18:09;;;;;;;144.35;25.77;;;5.40;99.90;;;;;;5110752;28;20047;-86
2022/01/13 10:20:35;;;;;;;120.82;24.83;;;5.40;99.90;;;;;;5094322;28;20404;-86
2022/01/13 10:23:09;;;;;;;119.82;22.77;;;5.40;99.90;;;;;;5093807;28;20032;-86
2022/01/13 10:25:39;;;;;;;122.55;23.90;;;5.40;99.90;;;;;;5111239;28;20070;-86
2022/01/13 10:28:22;;;;;;;103.25;22.75;;;5.40;99.90;;;;;;5093065;28;20268;-86
2022/01/13 10:30:51;;;;;;;106.60;21.48;;;5.40;99.90;;;;;;5093679;28;20042;-86
2022/01/13 10:33:23;;;;;;;93.28;21.88;;;5.40;99.90;;;;;;5093097;28;20032;-86
2022/01/13 10:35:51;;;;;;;107.38;25.25;;;5.30;99.90;;;;;;5108410;28;20040;-86
2022/01/13 10:38:17;;;;;;;104.53;23.52;;;5.40;99.90;;;;;;5083295;28;20039;-87
2022/01/13 10:40:48;;;;;;;109.70;23.52;;;5.40;99.90;;;;;;5082371;28;20114;-86
2022/01/13 10:43:16;;;;;;;124.63;23.63;;;5.40;99.90;;;;;;5109454;28;20038;-86
2022/01/13 10:45:46;;;;;;;102.60;24.88;;;5.40;99.90;;;;;;5093029;28;20492;-87
2022/01/13 10:48:35;;;;;;;96.40;23.38;;;5.40;99.90;;;;;;5110164;28;20035;-86
2022/01/13 10:51:05;;;;;;;91.10;22.90;;;5.50;99.90;;;;;;5092955;28;20163;-86
2022/01/13 10:53:33;;;;;;;77.72;21.65;;;5.50;99.90;;;;;;5109902;28;20053;-86
2022/01/13 10:56:06;;;;;;;95.05;22.25;;;5.50;99.90;;;;;;5093305;28;20404;-86
2022/01/13 10:58:50;;;;;;;79.88;23.00;;;5.50;99.90;;;;;;5093628;28;20039;-87
2022/01/13 11:01:16;;;;;;;94.32;22.88;;;5.50;99.90;;;;;;5092861;28;20039;-86
2022/01/13 11:03:44;;;;;;;90.15;22.73;;;5.50;99.90;;;;;;5109772;28;20032;-86
2022/01/13 11:06:11;;;;;;;97.18;22.98;;;5.60;99.90;;;;;;5093703;28;20086;-86
2022/01/13 11:08:42;;;;;;;101.85;25.35;;;5.60;99.90;;;;;;5093218;28;20036;-86
2022/01/13 11:11:22;;;;;;;90.47;23.10;;;5.60;99.90;;;;;;5110346;28;20687;-87
2022/01/13 11:13:54;;;;;;;100.30;22.42;;;5.60;99.90;;;;;;5092845;28;20462;-86
2022/01/13 11:16:21;;;;;;;106.93;24.10;;;5.60;99.90;;;;;;5093001;28;20114;-87
2022/01/13 11:18:47;;;;;;;80.10;20.15;;;5.60;99.90;;;;;;5093204;28;20082;-87
2022/01/13 11:21:13;;;;;;;93.93;23.35;;;5.60;99.90;;;;;;5110271;28;20078;-86
2022/01/13 11:23:41;;;;;;;106.63;22.75;;;5.60;99.90;;;;;;5092915;28;20047;-87
2022/01/13 11:26:08;;;;;;;76.75;21.50;;;5.60;99.90;;;;;;5093516;28;20130;-87
2022/01/13 11:28:35;;;;;;;96.63;23.77;;;5.60;99.90;;;;;;5092979;28;20032;-86
2022/01/13 11:31:01;;;;;;;87.60;22.60;;;5.60;99.90;;;;;;5109921;28;20432;-86
2022/01/13 11:33:27;;;;;;;93.13;23.00;;;5.60;99.90;;;;;;5092663;28;20076;-87
2022/01/13 11:35:57;;;;;;;89.80;23.08;;;5.60;99.90;;;;;;5108874;28;20035;-86
2022/01/13 11:38:26;;;;;;;75.63;21.10;;;5.60;99.90;;;;;;5110012;28;20077;-86
2022/01/13 11:40:54;;;;;;;57.08;18.10;;;5.60;99.90;;;;;;5094224;28;20046;-83
2022/01/13 11:43:29;;;;;;;75.93;21.58;;;5.60;99.90;;;;;;5115225;28;20035;-85
2022/01/13 11:45:55;;;;;;;76.97;22.13;;;5.60;99.90;;;;;;5097541;28;20043;-86
2022/01/13 11:48:24;;;;;;;75.05;22.38;;;5.60;99.90;;;;;;5114288;28;20044;-86
2022/01/13 11:51:13;;;;;;;78.90;21.90;;;5.50;99.90;;;;;;5097403;28;20073;-86
2022/01/13 11:53:41;;;;;;;78.72;22.15;;;5.50;99.90;;;;;;5097242;28;20068;-86
2022/01/13 11:56:08;;;;;;;72.55;22.15;;;5.50;99.90;;;;;;5113603;28;20135;-87
2022/01/13 11:58:43;;;;;;;72.13;21.92;;;5.60;99.90;;;;;;5088132;28;20131;-86
2022/01/13 12:01:25;;;;;;;70.00;21.73;;;5.50;99.90;;;;;;5101308;28;20541;-86
2022/01/13 12:04:00;;;;;;;71.15;22.10;;;5.60;99.90;;;;;;5101636;28;20059;-86
2022/01/13 12:06:36;;;;;;;83.60;22.13;;;5.60;99.90;;;;;;5085847;28;20039;-86
2022/01/13 12:09:04;;;;;;;67.68;19.92;;;5.60;99.90;;;;;;5102950;28;20035;-86
2022/01/13 12:11:46;;;;;;;67.80;21.23;;;5.60;99.90;;;;;;5101431;28;20028;-86
2022/01/13 12:14:24;;;;;;;66.45;20.38;;;5.60;99.90;;;;;;5091000;28;20517;-86
2022/01/13 12:17:25;;;;;;;56.65;19.17;;;5.60;99.90;;;;;;5113189;28;20473;-86
2022/01/13 12:19:59;;;;;;;59.03;19.45;;;5.60;99.90;;;;;;5096393;28;20046;-87
2022/01/13 12:22:43;;;;;;;68.10;19.83;;;5.60;99.90;;;;;;5096043;28;20043;-87
2022/01/13 12:25:12;;;;;;;53.25;19.52;;;5.60;99.90;;;;;;5095738;28;20493;-87
2022/01/13 12:27:40;;;;;;;53.63;17.85;;;5.60;99.90;;;;;;5112804;28;20043;-86
2022/01/13 12:30:25;;;;;;;60.83;20.48;;;5.60;99.90;;;;;;5113179;28;20088;-86
2022/01/13 12:32:57;;;;;;;57.08;20.95;;;5.70;99.90;;;;;;5096070;28;20035;-86
2022/01/13 12:35:34;;;;;;;43.53;15.15;;;5.70;99.90;;;;;;5112758;28;20039;-86
2022/01/13 12:38:06;;;;;;;53.83;18.23;;;5.60;99.90;;;;;;5075492;28;20053;-86
2022/01/13 12:41:02;;;;;;;50.60;18.98;;;5.60;99.90;;;;;;5075610;28;20123;-86
2022/01/13 12:46:12;;;;;;;50.45;17.98;;;5.70;99.90;;;;;;5108467;28;20500;-87
2022/01/13 12:48:40;;;;;;;45.42;16.30;;;5.70;99.90;;;;;;5095781;28;20035;-87
2022/01/13 12:51:06;;;;;;;44.22;18.05;;;5.70;99.90;;;;;;5114077;28;20043;-87
2022/01/13 12:53:34;;;;;;;48.95;19.27;;;5.70;99.90;;;;;;5095861;28;20160;-87
2022/01/13 12:56:02;;;;;;;48.33;18.88;;;5.70;99.90;;;;;;5094948;28;20504;-86
2022/01/13 12:58:32;;;;;;;51.70;19.55;;;5.70;99.90;;;;;;5095267;28;20091;-86
2022/01/13 13:01:03;;;;;;;54.15;21.27;;;5.70;99.90;;;;;;5095793;28;20126;-86
2022/01/13 13:03:29;;;;;;;51.00;19.85;;;5.80;99.90;;;;;;5111925;28;20393;-86
2022/01/13 13:05:56;;;;;;;50.42;19.42;;;5.80;99.90;;;;;;5095414;28;20038;-86